sensor_id;sensor_type;location;lat;lon;timestamp;temperature;humidity
5578;DHT22;2811;51.900;10.734;2023-04-03T00:01:01;1.60;99.90
5578;DHT22;2811;51.900;10.734;2023-04-03T00:03:28;1.60;99.90
5578;DHT22;2811;51.900;10.734;2023-04-03T00:05:55;1.50;99.90
5578;DHT22;2811;51.900;10.734;2023-04-03T00:08:23;1.50;99.90
5578;DHT22;2811;51.900;10.734;2023-04-03T00:10:49;1.50;99.90
5578;DHT22;2811;51.900;10.734;2023-04-03T00:13:16;1.50;99.90
5578;DHT22;2811;51.900;10.734;2023-04-03T00:15:43;1.40;99.90
5578;DHT22;2811;51.900;10.734;2023-04-03T00:18:10;1.60;99.90
5578;DHT22;2811;51.900;10.734;2023-04-03T00:20:37;1.80;99.90
5578;DHT22;2811;51.900;10.734;2023-04-03T00:23:03;1.60;99.90
5578;DHT22;2811;51.900;10.734;2023-04-03T00:25:31;1.60;99.90
5578;DHT22;2811;51.900;10.734;2023-04-03T00:27:58;1.60;99.90
5578;DHT22;2811;51.900;10.734;2023-04-03T00:30:25;1.60;99.90
5578;DHT22;2811;51.900;10.734;2023-04-03T00:32:52;1.70;99.90
5578;DHT22;2811;51.900;10.734;2023-04-03T00:35:20;1.80;99.90
5578;DHT22;2811;51.900;10.734;2023-04-03T00:37:50;1.70;99.90
5578;DHT22;2811;51.900;10.734;2023-04-03T00:40:17;1.80;99.90
5578;DHT22;2811;51.900;10.734;2023-04-03T00:42:46;1.80;99.90
5578;DHT22;2811;51.900;10.734;2023-04-03T00:45:27;2.00;99.90
5578;DHT22;2811;51.900;10.734;2023-04-03T00:47:56;1.60;99.90
5578;DHT22;2811;51.900;10.734;2023-04-03T00:50:25;1.60;99.90
5578;DHT22;2811;51.900;10.734;2023-04-03T00:52:51;1.50;99.90
5578;DHT22;2811;51.900;10.734;2023-04-03T00:55:19;1.40;99.90
5578;DHT22;2811;51.900;10.734;2023-04-03T00:57:48;1.20;99.90
5578;DHT22;2811;51.900;10.734;2023-04-03T01:00:18;1.10;99.90
5578;DHT22;2811;51.900;10.734;2023-04-03T01:02:45;1.20;99.90
5578;DHT22;2811;51.900;10.734;2023-04-03T01:05:12;1.10;99.90
5578;DHT22;2811;51.900;10.734;2023-04-03T01:07:42;1.10;99.90
5578;DHT22;2811;51.900;10.734;2023-04-03T01:10:12;1.00;99.90
5578;DHT22;2811;51.900;10.734;2023-04-03T01:12:41;0.90;99.90
5578;DHT22;2811;51.900;10.734;2023-04-03T01:15:11;1.00;99.90
5578;DHT22;2811;51.900;10.734;2023-04-03T01:17:40;1.10;99.90
5578;DHT22;2811;51.900;10.734;2023-04-03T01:20:33;1.00;99.90
5578;DHT22;2811;51.900;10.734;2023-04-03T01:23:13;1.00;99.90
5578;DHT22;2811;51.900;10.734;2023-04-03T01:25:46;1.10;99.90
5578;DHT22;2811;51.900;10.734;2023-04-03T01:28:15;0.90;99.90
5578;DHT22;2811;51.900;10.734;2023-04-03T01:30:47;0.90;99.90
5578;DHT22;2811;51.900;10.734;2023-04-03T01:33:18;1.00;99.90
5578;DHT22;2811;51.900;10.734;2023-04-03T01:35:45;0.90;99.90
5578;DHT22;2811;51.900;10.734;2023-04-03T01:38:11;0.90;99.90
5578;DHT22;2811;51.900;10.734;2023-04-03T01:40:38;1.00;99.90
5578;DHT22;2811;51.900;10.734;2023-04-03T01:43:05;1.10;99.90
5578;DHT22;2811;51.900;10.734;2023-04-03T01:45:31;1.20;99.90
5578;DHT22;2811;51.900;10.734;2023-04-03T01:47:58;1.10;99.90
5578;DHT22;2811;51.900;10.734;2023-04-03T01:50:26;1.10;99.90
5578;DHT22;2811;51.900;10.734;2023-04-03T01:52:52;1.10;99.90
5578;DHT22;2811;51.900;10.734;2023-04-03T01:55:19;1.00;99.90
5578;DHT22;2811;51.900;10.734;2023-04-03T01:57:46;1.00;99.90
5578;DHT22;2811;51.900;10.734;2023-04-03T02:00:13;0.90;99.90
5578;DHT22;2811;51.900;10.734;2023-04-03T02:02:40;0.90;99.90
5578;DHT22;2811;51.900;10.734;2023-04-03T02:05:07;0.90;99.90
5578;DHT22;2811;51.900;10.734;2023-04-03T02:07:35;0.90;99.90
5578;DHT22;2811;51.900;10.734;2023-04-03T02:10:02;0.80;99.90
5578;DHT22;2811;51.900;10.734;2023-04-03T02:12:29;0.90;99.90
5578;DHT22;2811;51.900;10.734;2023-04-03T02:14:56;0.70;99.90
5578;DHT22;2811;51.900;10.734;2023-04-03T02:17:22;0.70;99.90
5578;DHT22;2811;51.900;10.734;2023-04-03T02:19:49;0.70;99.90
5578;DHT22;2811;51.900;10.734;2023-04-03T02:22:15;0.60;99.90
5578;DHT22;2811;51.900;10.734;2023-04-03T02:24:43;0.70;99.90
5578;DHT22;2811;51.900;10.734;2023-04-03T02:27:10;0.70;99.90
5578;DHT22;2811;51.900;10.734;2023-04-03T02:29:37;0.70;99.90
5578;DHT22;2811;51.900;10.734;2023-04-03T02:32:04;0.60;99.90
5578;DHT22;2811;51.900;10.734;2023-04-03T02:34:31;0.60;99.90
5578;DHT22;2811;51.900;10.734;2023-04-03T02:36:57;0.40;99.90
5578;DHT22;2811;51.900;10.734;2023-04-03T02:39:24;0.50;99.90
5578;DHT22;2811;51.900;10.734;2023-04-03T02:41:52;0.50;99.90
5578;DHT22;2811;51.900;10.734;2023-04-03T02:44:19;0.50;99.90
5578;DHT22;2811;51.900;10.734;2023-04-03T02:46:46;0.40;99.90
5578;DHT22;2811;51.900;10.734;2023-04-03T02:49:12;0.50;99.90
5578;DHT22;2811;51.900;10.734;2023-04-03T02:51:39;0.40;99.90
5578;DHT22;2811;51.900;10.734;2023-04-03T02:54:06;0.50;99.90
5578;DHT22;2811;51.900;10.734;2023-04-03T02:56:32;0.50;99.90
5578;DHT22;2811;51.900;10.734;2023-04-03T02:59:00;0.50;99.90
5578;DHT22;2811;51.900;10.734;2023-04-03T03:01:27;0.70;99.90
5578;DHT22;2811;51.900;10.734;2023-04-03T03:03:56;0.60;99.90
5578;DHT22;2811;51.900;10.734;2023-04-03T03:06:23;0.50;99.90
5578;DHT22;2811;51.900;10.734;2023-04-03T03:08:50;0.30;99.90
5578;DHT22;2811;51.900;10.734;2023-04-03T03:11:16;0.20;99.90
5578;DHT22;2811;51.900;10.734;2023-04-03T03:13:44;0.20;99.90
5578;DHT22;2811;51.900;10.734;2023-04-03T03:16:12;0.20;99.90
5578;DHT22;2811;51.900;10.734;2023-04-03T03:18:39;0.40;99.90
5578;DHT22;2811;51.900;10.734;2023-04-03T03:21:05;0.30;99.90
5578;DHT22;2811;51.900;10.734;2023-04-03T03:23:32;0.30;99.90
5578;DHT22;2811;51.900;10.734;2023-04-03T03:26:01;0.30;99.90
5578;DHT22;2811;51.900;10.734;2023-04-03T03:28:28;0.30;99.90
5578;DHT22;2811;51.900;10.734;2023-04-03T03:30:56;0.30;99.90
5578;DHT22;2811;51.900;10.734;2023-04-03T03:33:25;0.30;99.90
5578;DHT22;2811;51.900;10.734;2023-04-03T03:35:52;0.30;99.90
5578;DHT22;2811;51.900;10.734;2023-04-03T03:38:19;0.30;99.90
5578;DHT22;2811;51.900;10.734;2023-04-03T03:40:46;0.40;99.90
5578;DHT22;2811;51.900;10.734;2023-04-03T03:43:13;0.20;99.90
5578;DHT22;2811;51.900;10.734;2023-04-03T03:45:40;0.10;99.90
5578;DHT22;2811;51.900;10.734;2023-04-03T03:48:06;0.00;99.90
5578;DHT22;2811;51.900;10.734;2023-04-03T03:50:34;0.00;99.90
5578;DHT22;2811;51.900;10.734;2023-04-03T03:53:01;0.00;99.90
5578;DHT22;2811;51.900;10.734;2023-04-03T03:55:28;0.20;99.90
5578;DHT22;2811;51.900;10.734;2023-04-03T03:57:54;0.20;99.90
5578;DHT22;2811;51.900;10.734;2023-04-03T04:00:21;0.00;99.90
5578;DHT22;2811;51.900;10.734;2023-04-03T04:02:47;0.00;99.90
5578;DHT22;2811;51.900;10.734;2023-04-03T04:05:14;-0.10;99.90
5578;DHT22;2811;51.900;10.734;2023-04-03T04:07:42;-0.10;99.90
5578;DHT22;2811;51.900;10.734;2023-04-03T04:10:09;-0.20;99.90
5578;DHT22;2811;51.900;10.734;2023-04-03T04:12:36;-0.20;99.90
5578;DHT22;2811;51.900;10.734;2023-04-03T04:15:03;-0.10;99.90
5578;DHT22;2811;51.900;10.734;2023-04-03T04:17:29;-0.30;99.90
5578;DHT22;2811;51.900;10.734;2023-04-03T04:19:56;-0.30;99.90
5578;DHT22;2811;51.900;10.734;2023-04-03T04:22:23;-0.30;99.90
5578;DHT22;2811;51.900;10.734;2023-04-03T04:24:51;-0.20;99.90
5578;DHT22;2811;51.900;10.734;2023-04-03T04:27:17;-0.30;99.90
5578;DHT22;2811;51.900;10.734;2023-04-03T04:29:44;-0.50;99.90
5578;DHT22;2811;51.900;10.734;2023-04-03T04:32:10;-0.30;99.90
5578;DHT22;2811;51.900;10.734;2023-04-03T04:34:37;-0.30;99.90
5578;DHT22;2811;51.900;10.734;2023-04-03T04:37:04;-0.40;99.90
5578;DHT22;2811;51.900;10.734;2023-04-03T04:39:30;-0.30;99.90
5578;DHT22;2811;51.900;10.734;2023-04-03T04:41:58;-0.40;99.90
5578;DHT22;2811;51.900;10.734;2023-04-03T04:44:25;-0.30;99.90
5578;DHT22;2811;51.900;10.734;2023-04-03T04:46:51;-0.30;99.90
5578;DHT22;2811;51.900;10.734;2023-04-03T04:49:18;-0.30;99.90
5578;DHT22;2811;51.900;10.734;2023-04-03T04:51:45;-0.30;99.90
5578;DHT22;2811;51.900;10.734;2023-04-03T04:54:12;-0.40;99.90
5578;DHT22;2811;51.900;10.734;2023-04-03T04:56:38;-0.30;99.90
5578;DHT22;2811;51.900;10.734;2023-04-03T04:59:07;-0.20;99.90
5578;DHT22;2811;51.900;10.734;2023-04-03T05:01:33;-0.30;99.90
5578;DHT22;2811;51.900;10.734;2023-04-03T05:04:01;-0.40;99.90
5578;DHT22;2811;51.900;10.734;2023-04-03T05:06:27;-0.40;99.90
5578;DHT22;2811;51.900;10.734;2023-04-03T05:08:55;-0.30;99.90
5578;DHT22;2811;51.900;10.734;2023-04-03T05:11:22;-0.40;99.90
5578;DHT22;2811;51.900;10.734;2023-04-03T05:13:48;-0.40;99.90
5578;DHT22;2811;51.900;10.734;2023-04-03T05:16:16;-0.30;99.90
5578;DHT22;2811;51.900;10.734;2023-04-03T05:18:43;-0.20;99.90
5578;DHT22;2811;51.900;10.734;2023-04-03T05:21:09;0.00;99.90
5578;DHT22;2811;51.900;10.734;2023-04-03T05:23:36;0.20;99.90
5578;DHT22;2811;51.900;10.734;2023-04-03T05:26:02;0.30;99.90
5578;DHT22;2811;51.900;10.734;2023-04-03T05:28:29;0.40;99.90
5578;DHT22;2811;51.900;10.734;2023-04-03T05:30:57;1.00;99.90
5578;DHT22;2811;51.900;10.734;2023-04-03T05:33:26;0.70;99.90
5578;DHT22;2811;51.900;10.734;2023-04-03T05:35:53;0.80;99.90
5578;DHT22;2811;51.900;10.734;2023-04-03T05:38:20;0.80;99.90
5578;DHT22;2811;51.900;10.734;2023-04-03T05:40:47;0.70;99.90
5578;DHT22;2811;51.900;10.734;2023-04-03T05:43:13;0.80;99.90
5578;DHT22;2811;51.900;10.734;2023-04-03T05:45:40;0.70;99.90
5578;DHT22;2811;51.900;10.734;2023-04-03T05:48:06;1.00;99.90
5578;DHT22;2811;51.900;10.734;2023-04-03T05:50:34;1.10;99.90
5578;DHT22;2811;51.900;10.734;2023-04-03T05:53:06;1.20;99.90
5578;DHT22;2811;51.900;10.734;2023-04-03T05:55:33;1.20;99.90
5578;DHT22;2811;51.900;10.734;2023-04-03T05:58:00;1.40;99.90
5578;DHT22;2811;51.900;10.734;2023-04-03T06:00:26;1.50;99.90
5578;DHT22;2811;51.900;10.734;2023-04-03T06:02:54;1.50;99.90
5578;DHT22;2811;51.900;10.734;2023-04-03T06:05:20;1.50;99.90
5578;DHT22;2811;51.900;10.734;2023-04-03T06:07:49;1.50;99.90
5578;DHT22;2811;51.900;10.734;2023-04-03T06:10:16;1.60;99.90
5578;DHT22;2811;51.900;10.734;2023-04-03T06:12:42;1.70;99.90
5578;DHT22;2811;51.900;10.734;2023-04-03T06:15:09;1.70;99.90
5578;DHT22;2811;51.900;10.734;2023-04-03T06:17:37;1.70;99.90
5578;DHT22;2811;51.900;10.734;2023-04-03T06:20:04;1.90;99.90
5578;DHT22;2811;51.900;10.734;2023-04-03T06:22:31;2.00;99.90
5578;DHT22;2811;51.900;10.734;2023-04-03T06:24:59;2.20;99.90
5578;DHT22;2811;51.900;10.734;2023-04-03T06:27:26;2.10;99.90
5578;DHT22;2811;51.900;10.734;2023-04-03T06:29:52;2.20;99.90
5578;DHT22;2811;51.900;10.734;2023-04-03T06:32:19;2.20;99.90
5578;DHT22;2811;51.900;10.734;2023-04-03T06:34:45;2.40;99.90
5578;DHT22;2811;51.900;10.734;2023-04-03T06:37:15;2.40;99.90
5578;DHT22;2811;51.900;10.734;2023-04-03T06:39:41;2.40;99.90
5578;DHT22;2811;51.900;10.734;2023-04-03T06:42:09;2.60;99.90
5578;DHT22;2811;51.900;10.734;2023-04-03T06:44:36;2.90;99.90
5578;DHT22;2811;51.900;10.734;2023-04-03T06:47:03;3.20;99.90
5578;DHT22;2811;51.900;10.734;2023-04-03T06:49:30;3.20;99.90
5578;DHT22;2811;51.900;10.734;2023-04-03T06:51:57;3.30;99.90
5578;DHT22;2811;51.900;10.734;2023-04-03T06:54:24;3.10;99.90
5578;DHT22;2811;51.900;10.734;2023-04-03T06:56:51;3.40;99.90
5578;DHT22;2811;51.900;10.734;2023-04-03T06:59:18;3.70;99.90
5578;DHT22;2811;51.900;10.734;2023-04-03T07:01:45;3.80;99.90
5578;DHT22;2811;51.900;10.734;2023-04-03T07:04:12;3.90;99.90
5578;DHT22;2811;51.900;10.734;2023-04-03T07:06:39;4.10;99.90
5578;DHT22;2811;51.900;10.734;2023-04-03T07:09:07;4.50;99.90
5578;DHT22;2811;51.900;10.734;2023-04-03T07:11:34;4.40;99.90
5578;DHT22;2811;51.900;10.734;2023-04-03T07:14:01;4.30;99.90
5578;DHT22;2811;51.900;10.734;2023-04-03T07:16:29;4.30;99.90
5578;DHT22;2811;51.900;10.734;2023-04-03T07:18:56;4.80;99.90
5578;DHT22;2811;51.900;10.734;2023-04-03T07:21:23;4.60;99.90
5578;DHT22;2811;51.900;10.734;2023-04-03T07:23:50;5.00;99.90
5578;DHT22;2811;51.900;10.734;2023-04-03T07:26:16;5.10;99.90
5578;DHT22;2811;51.900;10.734;2023-04-03T07:28:43;5.80;99.90
5578;DHT22;2811;51.900;10.734;2023-04-03T07:31:11;5.80;99.90
5578;DHT22;2811;51.900;10.734;2023-04-03T07:33:40;5.70;99.90
5578;DHT22;2811;51.900;10.734;2023-04-03T07:36:08;6.10;99.90
5578;DHT22;2811;51.900;10.734;2023-04-03T07:38:36;6.40;99.90
5578;DHT22;2811;51.900;10.734;2023-04-03T07:41:04;6.40;99.90
5578;DHT22;2811;51.900;10.734;2023-04-03T07:43:31;6.30;99.90
5578;DHT22;2811;51.900;10.734;2023-04-03T07:45:58;6.50;99.90
5578;DHT22;2811;51.900;10.734;2023-04-03T07:48:25;6.10;99.90
5578;DHT22;2811;51.900;10.734;2023-04-03T07:50:53;6.00;99.90
5578;DHT22;2811;51.900;10.734;2023-04-03T07:53:20;5.50;99.90
5578;DHT22;2811;51.900;10.734;2023-04-03T07:55:48;5.30;99.90
5578;DHT22;2811;51.900;10.734;2023-04-03T07:58:17;5.20;99.90
5578;DHT22;2811;51.900;10.734;2023-04-03T08:00:44;4.90;99.90
5578;DHT22;2811;51.900;10.734;2023-04-03T08:03:11;4.80;99.90
5578;DHT22;2811;51.900;10.734;2023-04-03T08:05:39;5.00;99.90
5578;DHT22;2811;51.900;10.734;2023-04-03T08:08:08;4.70;99.90
5578;DHT22;2811;51.900;10.734;2023-04-03T08:10:35;5.30;99.90
5578;DHT22;2811;51.900;10.734;2023-04-03T08:13:02;5.80;99.90
5578;DHT22;2811;51.900;10.734;2023-04-03T08:15:30;6.20;99.90
5578;DHT22;2811;51.900;10.734;2023-04-03T08:17:57;6.60;99.90
5578;DHT22;2811;51.900;10.734;2023-04-03T08:20:24;6.30;99.90
5578;DHT22;2811;51.900;10.734;2023-04-03T08:22:51;6.30;99.90
5578;DHT22;2811;51.900;10.734;2023-04-03T08:25:19;6.70;99.90
5578;DHT22;2811;51.900;10.734;2023-04-03T08:27:45;6.60;99.90
5578;DHT22;2811;51.900;10.734;2023-04-03T08:30:13;6.40;99.90
5578;DHT22;2811;51.900;10.734;2023-04-03T08:32:40;6.60;99.90
5578;DHT22;2811;51.900;10.734;2023-04-03T08:35:08;6.40;99.90
5578;DHT22;2811;51.900;10.734;2023-04-03T08:37:36;5.90;99.90
5578;DHT22;2811;51.900;10.734;2023-04-03T08:40:04;5.80;99.90
5578;DHT22;2811;51.900;10.734;2023-04-03T08:42:40;5.80;99.90
5578;DHT22;2811;51.900;10.734;2023-04-03T08:45:11;5.80;99.90
5578;DHT22;2811;51.900;10.734;2023-04-03T08:47:42;5.90;99.90
5578;DHT22;2811;51.900;10.734;2023-04-03T08:50:13;6.30;99.90
5578;DHT22;2811;51.900;10.734;2023-04-03T08:52:44;6.30;99.90
5578;DHT22;2811;51.900;10.734;2023-04-03T08:55:19;6.50;99.90
5578;DHT22;2811;51.900;10.734;2023-04-03T08:57:53;6.20;99.90
5578;DHT22;2811;51.900;10.734;2023-04-03T09:00:25;6.10;99.90
5578;DHT22;2811;51.900;10.734;2023-04-03T09:02:54;6.20;99.90
5578;DHT22;2811;51.900;10.734;2023-04-03T09:05:32;5.80;99.90
5578;DHT22;2811;51.900;10.734;2023-04-03T09:08:07;6.00;99.90
5578;DHT22;2811;51.900;10.734;2023-04-03T09:10:39;6.10;99.90
5578;DHT22;2811;51.900;10.734;2023-04-03T09:13:13;6.00;99.90
5578;DHT22;2811;51.900;10.734;2023-04-03T09:15:47;5.60;99.90
5578;DHT22;2811;51.900;10.734;2023-04-03T09:18:16;5.40;99.90
5578;DHT22;2811;51.900;10.734;2023-04-03T09:20:52;5.50;99.90
5578;DHT22;2811;51.900;10.734;2023-04-03T09:23:26;5.90;99.90
5578;DHT22;2811;51.900;10.734;2023-04-03T09:25:58;5.80;99.90
5578;DHT22;2811;51.900;10.734;2023-04-03T09:28:29;5.80;99.90
5578;DHT22;2811;51.900;10.734;2023-04-03T09:30:59;5.90;99.90
5578;DHT22;2811;51.900;10.734;2023-04-03T09:33:26;6.60;99.90
5578;DHT22;2811;51.900;10.734;2023-04-03T09:35:54;5.80;99.90
5578;DHT22;2811;51.900;10.734;2023-04-03T09:38:22;5.60;99.90
5578;DHT22;2811;51.900;10.734;2023-04-03T09:40:50;5.50;99.90
5578;DHT22;2811;51.900;10.734;2023-04-03T09:43:38;5.70;99.90
5578;DHT22;2811;51.900;10.734;2023-04-03T09:46:24;5.90;99.90
5578;DHT22;2811;51.900;10.734;2023-04-03T09:48:55;6.10;99.90
5578;DHT22;2811;51.900;10.734;2023-04-03T09:51:25;6.20;99.90
5578;DHT22;2811;51.900;10.734;2023-04-03T09:53:52;6.60;99.90
5578;DHT22;2811;51.900;10.734;2023-04-03T09:56:22;6.40;99.90
5578;DHT22;2811;51.900;10.734;2023-04-03T09:59:07;6.30;99.90
5578;DHT22;2811;51.900;10.734;2023-04-03T10:01:36;6.00;99.90
5578;DHT22;2811;51.900;10.734;2023-04-03T10:04:09;5.80;99.90
5578;DHT22;2811;51.900;10.734;2023-04-03T10:06:38;5.80;99.90
5578;DHT22;2811;51.900;10.734;2023-04-03T10:09:17;5.70;99.90
5578;DHT22;2811;51.900;10.734;2023-04-03T10:11:58;5.90;99.90
5578;DHT22;2811;51.900;10.734;2023-04-03T10:14:27;6.00;99.90
5578;DHT22;2811;51.900;10.734;2023-04-03T10:16:59;6.10;99.90
5578;DHT22;2811;51.900;10.734;2023-04-03T10:19:36;6.40;99.90
5578;DHT22;2811;51.900;10.734;2023-04-03T10:22:12;5.90;99.90
5578;DHT22;2811;51.900;10.734;2023-04-03T10:24:52;5.60;99.90
5578;DHT22;2811;51.900;10.734;2023-04-03T10:27:40;5.30;99.90
5578;DHT22;2811;51.900;10.734;2023-04-03T10:30:21;5.40;99.90
5578;DHT22;2811;51.900;10.734;2023-04-03T10:33:00;5.50;99.90
5578;DHT22;2811;51.900;10.734;2023-04-03T10:35:43;5.60;99.90
5578;DHT22;2811;51.900;10.734;2023-04-03T10:38:17;5.80;99.90
5578;DHT22;2811;51.900;10.734;2023-04-03T10:40:52;5.80;99.90
5578;DHT22;2811;51.900;10.734;2023-04-03T10:43:27;5.80;99.90
5578;DHT22;2811;51.900;10.734;2023-04-03T10:46:00;5.90;99.90
5578;DHT22;2811;51.900;10.734;2023-04-03T10:48:36;5.90;99.90
5578;DHT22;2811;51.900;10.734;2023-04-03T10:51:17;5.90;99.90
5578;DHT22;2811;51.900;10.734;2023-04-03T10:53:52;5.90;99.90
5578;DHT22;2811;51.900;10.734;2023-04-03T10:56:30;6.20;99.90
5578;DHT22;2811;51.900;10.734;2023-04-03T10:59:12;5.80;99.90
5578;DHT22;2811;51.900;10.734;2023-04-03T11:01:44;5.70;99.90
5578;DHT22;2811;51.900;10.734;2023-04-03T11:04:13;5.70;99.90
5578;DHT22;2811;51.900;10.734;2023-04-03T11:06:45;5.70;99.90
5578;DHT22;2811;51.900;10.734;2023-04-03T11:09:19;6.10;99.90
5578;DHT22;2811;51.900;10.734;2023-04-03T11:11:48;5.90;99.90
5578;DHT22;2811;51.900;10.734;2023-04-03T11:14:24;6.10;99.90
5578;DHT22;2811;51.900;10.734;2023-04-03T11:17:01;5.90;99.90
5578;DHT22;2811;51.900;10.734;2023-04-03T11:19:35;5.70;99.90
5578;DHT22;2811;51.900;10.734;2023-04-03T11:22:06;5.70;99.90
5578;DHT22;2811;51.900;10.734;2023-04-03T11:24:36;5.60;99.90
5578;DHT22;2811;51.900;10.734;2023-04-03T11:27:08;5.80;99.30
5578;DHT22;2811;51.900;10.734;2023-04-03T11:29:40;5.90;99.50
5578;DHT22;2811;51.900;10.734;2023-04-03T11:32:27;6.30;99.20
5578;DHT22;2811;51.900;10.734;2023-04-03T11:34:57;6.20;99.40
5578;DHT22;2811;51.900;10.734;2023-04-03T11:37:29;5.70;99.90
5578;DHT22;2811;51.900;10.734;2023-04-03T11:39:59;5.70;98.90
5578;DHT22;2811;51.900;10.734;2023-04-03T11:42:33;5.80;99.90
5578;DHT22;2811;51.900;10.734;2023-04-03T11:45:32;5.80;98.50
5578;DHT22;2811;51.900;10.734;2023-04-03T11:48:02;6.00;98.70
5578;DHT22;2811;51.900;10.734;2023-04-03T11:50:40;6.30;98.40
5578;DHT22;2811;51.900;10.734;2023-04-03T11:53:30;6.30;97.00
5578;DHT22;2811;51.900;10.734;2023-04-03T11:56:00;6.20;98.10
5578;DHT22;2811;51.900;10.734;2023-04-03T11:58:28;6.20;98.30
5578;DHT22;2811;51.900;10.734;2023-04-03T12:01:01;6.30;98.50
5578;DHT22;2811;51.900;10.734;2023-04-03T12:04:03;6.20;98.20
5578;DHT22;2811;51.900;10.734;2023-04-03T12:10:01;6.20;98.70
5578;DHT22;2811;51.900;10.734;2023-04-03T12:12:34;6.50;97.70
5578;DHT22;2811;51.900;10.734;2023-04-03T12:15:43;6.40;97.30
5578;DHT22;2811;51.900;10.734;2023-04-03T12:21:20;6.10;98.70
5578;DHT22;2811;51.900;10.734;2023-04-03T12:24:00;6.00;99.90
5578;DHT22;2811;51.900;10.734;2023-04-03T12:26:31;6.30;99.90
5578;DHT22;2811;51.900;10.734;2023-04-03T12:28:59;6.70;99.00
5578;DHT22;2811;51.900;10.734;2023-04-03T12:31:40;6.70;97.50
5578;DHT22;2811;51.900;10.734;2023-04-03T12:34:18;7.10;97.40
5578;DHT22;2811;51.900;10.734;2023-04-03T12:36:59;7.30;95.50
5578;DHT22;2811;51.900;10.734;2023-04-03T12:39:45;7.50;94.00
5578;DHT22;2811;51.900;10.734;2023-04-03T12:42:37;7.70;93.70
5578;DHT22;2811;51.900;10.734;2023-04-03T12:45:15;8.00;93.20
5578;DHT22;2811;51.900;10.734;2023-04-03T12:47:43;8.40;93.80
5578;DHT22;2811;51.900;10.734;2023-04-03T12:50:19;8.40;93.60
5578;DHT22;2811;51.900;10.734;2023-04-03T12:52:54;8.50;92.90
5578;DHT22;2811;51.900;10.734;2023-04-03T12:55:22;8.00;93.40
5578;DHT22;2811;51.900;10.734;2023-04-03T12:57:49;7.50;94.70
5578;DHT22;2811;51.900;10.734;2023-04-03T13:00:28;7.40;95.20
5578;DHT22;2811;51.900;10.734;2023-04-03T13:02:56;7.40;96.40
5578;DHT22;2811;51.900;10.734;2023-04-03T13:05:23;7.50;95.80
5578;DHT22;2811;51.900;10.734;2023-04-03T13:07:55;7.50;95.60
5578;DHT22;2811;51.900;10.734;2023-04-03T13:10:24;7.50;96.50
5578;DHT22;2811;51.900;10.734;2023-04-03T13:12:52;7.70;96.20
5578;DHT22;2811;51.900;10.734;2023-04-03T13:15:21;7.80;95.80
5578;DHT22;2811;51.900;10.734;2023-04-03T13:17:49;7.80;95.20
5578;DHT22;2811;51.900;10.734;2023-04-03T13:20:21;7.90;94.70
5578;DHT22;2811;51.900;10.734;2023-04-03T13:22:54;7.80;93.80
5578;DHT22;2811;51.900;10.734;2023-04-03T13:25:24;7.80;95.50
5578;DHT22;2811;51.900;10.734;2023-04-03T13:27:53;7.60;94.90
5578;DHT22;2811;51.900;10.734;2023-04-03T13:30:24;7.40;95.00
5578;DHT22;2811;51.900;10.734;2023-04-03T13:32:52;7.50;95.90
5578;DHT22;2811;51.900;10.734;2023-04-03T13:35:35;7.70;95.10
5578;DHT22;2811;51.900;10.734;2023-04-03T13:38:07;7.70;95.40
5578;DHT22;2811;51.900;10.734;2023-04-03T13:40:49;7.60;94.30
5578;DHT22;2811;51.900;10.734;2023-04-03T13:43:24;7.50;94.60
5578;DHT22;2811;51.900;10.734;2023-04-03T13:46:20;7.40;94.30
5578;DHT22;2811;51.900;10.734;2023-04-03T13:48:49;7.30;94.50
5578;DHT22;2811;51.900;10.734;2023-04-03T13:51:20;7.50;93.70
5578;DHT22;2811;51.900;10.734;2023-04-03T13:53:51;7.50;94.10
5578;DHT22;2811;51.900;10.734;2023-04-03T13:56:23;7.80;93.70
5578;DHT22;2811;51.900;10.734;2023-04-03T13:59:01;7.60;93.60
5578;DHT22;2811;51.900;10.734;2023-04-03T14:01:37;7.30;93.60
5578;DHT22;2811;51.900;10.734;2023-04-03T14:04:13;7.10;93.90
5578;DHT22;2811;51.900;10.734;2023-04-03T14:06:41;7.00;94.80
5578;DHT22;2811;51.900;10.734;2023-04-03T14:09:09;6.90;95.30
5578;DHT22;2811;51.900;10.734;2023-04-03T14:11:36;6.80;94.90
5578;DHT22;2811;51.900;10.734;2023-04-03T14:14:11;6.80;95.40
5578;DHT22;2811;51.900;10.734;2023-04-03T14:16:41;7.20;96.50
5578;DHT22;2811;51.900;10.734;2023-04-03T14:19:16;7.50;96.40
5578;DHT22;2811;51.900;10.734;2023-04-03T14:21:43;7.60;95.40
5578;DHT22;2811;51.900;10.734;2023-04-03T14:24:11;7.70;94.70
5578;DHT22;2811;51.900;10.734;2023-04-03T14:26:38;7.60;94.20
5578;DHT22;2811;51.900;10.734;2023-04-03T14:29:05;7.40;94.10
5578;DHT22;2811;51.900;10.734;2023-04-03T14:31:32;7.40;93.50
5578;DHT22;2811;51.900;10.734;2023-04-03T14:33:58;7.50;94.10
5578;DHT22;2811;51.900;10.734;2023-04-03T14:36:27;7.50;95.10
5578;DHT22;2811;51.900;10.734;2023-04-03T14:38:55;7.30;94.10
5578;DHT22;2811;51.900;10.734;2023-04-03T14:41:24;7.00;94.20
5578;DHT22;2811;51.900;10.734;2023-04-03T14:43:52;6.80;95.70
5578;DHT22;2811;51.900;10.734;2023-04-03T14:46:21;6.80;95.10
5578;DHT22;2811;51.900;10.734;2023-04-03T14:48:50;6.80;94.70
5578;DHT22;2811;51.900;10.734;2023-04-03T14:51:16;6.70;94.90
5578;DHT22;2811;51.900;10.734;2023-04-03T14:53:44;6.90;94.40
5578;DHT22;2811;51.900;10.734;2023-04-03T14:56:13;7.30;94.90
5578;DHT22;2811;51.900;10.734;2023-04-03T14:58:41;7.40;94.10
5578;DHT22;2811;51.900;10.734;2023-04-03T15:01:10;7.10;94.10
5578;DHT22;2811;51.900;10.734;2023-04-03T15:03:37;6.90;95.50
5578;DHT22;2811;51.900;10.734;2023-04-03T15:06:04;6.70;95.70
5578;DHT22;2811;51.900;10.734;2023-04-03T15:08:31;6.90;96.10
5578;DHT22;2811;51.900;10.734;2023-04-03T15:10:58;7.10;95.30
5578;DHT22;2811;51.900;10.734;2023-04-03T15:13:26;7.30;94.60
5578;DHT22;2811;51.900;10.734;2023-04-03T15:15:54;7.70;95.00
5578;DHT22;2811;51.900;10.734;2023-04-03T15:18:23;7.30;94.80
5578;DHT22;2811;51.900;10.734;2023-04-03T15:20:51;7.20;94.40
5578;DHT22;2811;51.900;10.734;2023-04-03T15:23:18;6.90;94.50
5578;DHT22;2811;51.900;10.734;2023-04-03T15:25:46;6.70;95.10
5578;DHT22;2811;51.900;10.734;2023-04-03T15:28:18;6.50;95.50
5578;DHT22;2811;51.900;10.734;2023-04-03T15:30:46;6.80;94.40
5578;DHT22;2811;51.900;10.734;2023-04-03T15:33:14;6.70;94.70
5578;DHT22;2811;51.900;10.734;2023-04-03T15:35:42;6.80;95.50
5578;DHT22;2811;51.900;10.734;2023-04-03T15:38:09;6.90;94.40
5578;DHT22;2811;51.900;10.734;2023-04-03T15:40:36;7.00;94.60
5578;DHT22;2811;51.900;10.734;2023-04-03T15:43:03;6.90;94.50
5578;DHT22;2811;51.900;10.734;2023-04-03T15:45:32;7.20;95.10
5578;DHT22;2811;51.900;10.734;2023-04-03T15:48:01;6.70;95.50
5578;DHT22;2811;51.900;10.734;2023-04-03T15:50:29;6.60;96.20
5578;DHT22;2811;51.900;10.734;2023-04-03T15:52:56;6.70;96.10
5578;DHT22;2811;51.900;10.734;2023-04-03T15:55:25;6.80;96.00
5578;DHT22;2811;51.900;10.734;2023-04-03T15:57:52;6.70;96.10
5578;DHT22;2811;51.900;10.734;2023-04-03T16:00:19;6.80;95.80
5578;DHT22;2811;51.900;10.734;2023-04-03T16:02:47;6.80;93.80
5578;DHT22;2811;51.900;10.734;2023-04-03T16:05:15;6.50;93.20
5578;DHT22;2811;51.900;10.734;2023-04-03T16:07:44;6.40;94.60
5578;DHT22;2811;51.900;10.734;2023-04-03T16:10:12;6.30;95.50
5578;DHT22;2811;51.900;10.734;2023-04-03T16:12:39;6.40;95.70
5578;DHT22;2811;51.900;10.734;2023-04-03T16:15:07;6.60;97.10
5578;DHT22;2811;51.900;10.734;2023-04-03T16:17:37;6.70;96.40
5578;DHT22;2811;51.900;10.734;2023-04-03T16:20:07;6.80;95.50
5578;DHT22;2811;51.900;10.734;2023-04-03T16:22:35;7.00;95.40